sensor_id;sensor_type;location;lat;lon;timestamp;temperature;humidity
52615;DHT22;38508;53.158;6.614;2022-10-16T00:01:59;14.30;99.90
52615;DHT22;38508;53.158;6.614;2022-10-16T00:04:25;14.30;99.90
52615;DHT22;38508;53.158;6.614;2022-10-16T00:06:50;14.20;99.90
52615;DHT22;38508;53.158;6.614;2022-10-16T00:09:16;14.20;99.90
52615;DHT22;38508;53.158;6.614;2022-10-16T00:11:42;14.20;99.90
52615;DHT22;38508;53.158;6.614;2022-10-16T00:14:10;14.00;99.90
52615;DHT22;38508;53.158;6.614;2022-10-16T00:16:36;14.00;99.90
52615;DHT22;38508;53.158;6.614;2022-10-16T00:19:02;14.00;99.90
52615;DHT22;38508;53.158;6.614;2022-10-16T00:21:29;14.10;99.90
52615;DHT22;38508;53.158;6.614;2022-10-16T00:24:05;14.20;99.90
52615;DHT22;38508;53.158;6.614;2022-10-16T00:26:32;14.30;99.90
52615;DHT22;38508;53.158;6.614;2022-10-16T00:28:58;14.40;99.90
52615;DHT22;38508;53.158;6.614;2022-10-16T00:31:24;14.40;99.90
52615;DHT22;38508;53.158;6.614;2022-10-16T00:33:51;14.30;99.90
52615;DHT22;38508;53.158;6.614;2022-10-16T00:36:22;14.30;99.90
52615;DHT22;38508;53.158;6.614;2022-10-16T00:38:56;14.30;99.90
52615;DHT22;38508;53.158;6.614;2022-10-16T00:41:24;14.20;99.90
52615;DHT22;38508;53.158;6.614;2022-10-16T00:43:51;14.20;99.90
52615;DHT22;38508;53.158;6.614;2022-10-16T00:49:03;14.10;99.90
52615;DHT22;38508;53.158;6.614;2022-10-16T00:54:03;14.10;99.90
52615;DHT22;38508;53.158;6.614;2022-10-16T00:56:29;14.00;99.90
52615;DHT22;38508;53.158;6.614;2022-10-16T00:58:55;14.10;99.90
52615;DHT22;38508;53.158;6.614;2022-10-16T01:01:20;14.10;99.90
52615;DHT22;38508;53.158;6.614;2022-10-16T01:03:46;14.10;99.90
52615;DHT22;38508;53.158;6.614;2022-10-16T01:09:11;14.10;99.90
52615;DHT22;38508;53.158;6.614;2022-10-16T01:11:48;14.20;99.90
52615;DHT22;38508;53.158;6.614;2022-10-16T01:14:23;14.20;99.90
52615;DHT22;38508;53.158;6.614;2022-10-16T01:17:41;14.20;99.90
52615;DHT22;38508;53.158;6.614;2022-10-16T01:25:44;14.10;99.90
52615;DHT22;38508;53.158;6.614;2022-10-16T01:28:11;14.00;99.90
52615;DHT22;38508;53.158;6.614;2022-10-16T01:30:40;14.10;99.90
52615;DHT22;38508;53.158;6.614;2022-10-16T01:33:19;14.20;99.90
52615;DHT22;38508;53.158;6.614;2022-10-16T01:35:51;14.20;99.90
52615;DHT22;38508;53.158;6.614;2022-10-16T01:38:36;14.20;99.90
52615;DHT22;38508;53.158;6.614;2022-10-16T01:41:14;14.20;99.90
52615;DHT22;38508;53.158;6.614;2022-10-16T01:43:48;14.10;99.90
52615;DHT22;38508;53.158;6.614;2022-10-16T01:46:17;14.20;99.90
52615;DHT22;38508;53.158;6.614;2022-10-16T01:48:44;14.10;99.90
52615;DHT22;38508;53.158;6.614;2022-10-16T01:51:12;14.10;99.90
52615;DHT22;38508;53.158;6.614;2022-10-16T01:53:40;14.20;99.90
52615;DHT22;38508;53.158;6.614;2022-10-16T01:56:12;14.20;99.90
52615;DHT22;38508;53.158;6.614;2022-10-16T01:58:44;14.20;99.90
52615;DHT22;38508;53.158;6.614;2022-10-16T02:01:11;14.10;99.90
52615;DHT22;38508;53.158;6.614;2022-10-16T02:03:40;14.10;99.90
52615;DHT22;38508;53.158;6.614;2022-10-16T02:06:08;14.20;99.90
52615;DHT22;38508;53.158;6.614;2022-10-16T02:08:34;14.20;99.90
52615;DHT22;38508;53.158;6.614;2022-10-16T02:11:00;14.30;99.90
52615;DHT22;38508;53.158;6.614;2022-10-16T02:13:33;14.20;99.90
52615;DHT22;38508;53.158;6.614;2022-10-16T02:16:01;14.10;99.90
52615;DHT22;38508;53.158;6.614;2022-10-16T02:18:26;14.20;99.90
52615;DHT22;38508;53.158;6.614;2022-10-16T02:26:17;14.20;99.90
52615;DHT22;38508;53.158;6.614;2022-10-16T02:28:48;14.30;99.90
52615;DHT22;38508;53.158;6.614;2022-10-16T02:31:23;14.30;99.90
52615;DHT22;38508;53.158;6.614;2022-10-16T02:33:53;14.20;99.90
52615;DHT22;38508;53.158;6.614;2022-10-16T02:36:20;14.20;99.90
52615;DHT22;38508;53.158;6.614;2022-10-16T02:38:46;14.20;99.90
52615;DHT22;38508;53.158;6.614;2022-10-16T02:41:13;14.30;99.90
52615;DHT22;38508;53.158;6.614;2022-10-16T02:43:39;14.40;99.90
52615;DHT22;38508;53.158;6.614;2022-10-16T02:46:04;14.40;99.90
52615;DHT22;38508;53.158;6.614;2022-10-16T02:48:30;14.30;99.90
52615;DHT22;38508;53.158;6.614;2022-10-16T02:50:56;14.20;99.90
52615;DHT22;38508;53.158;6.614;2022-10-16T02:53:22;14.40;99.90
52615;DHT22;38508;53.158;6.614;2022-10-16T02:55:48;14.40;99.90
52615;DHT22;38508;53.158;6.614;2022-10-16T02:58:14;14.50;99.90
52615;DHT22;38508;53.158;6.614;2022-10-16T03:00:39;14.40;99.90
52615;DHT22;38508;53.158;6.614;2022-10-16T03:03:05;14.30;99.90
52615;DHT22;38508;53.158;6.614;2022-10-16T03:05:31;14.30;99.90
52615;DHT22;38508;53.158;6.614;2022-10-16T03:07:56;14.30;99.90
52615;DHT22;38508;53.158;6.614;2022-10-16T03:10:25;14.20;99.90
52615;DHT22;38508;53.158;6.614;2022-10-16T03:12:50;14.20;99.90
52615;DHT22;38508;53.158;6.614;2022-10-16T03:15:16;14.30;99.90
52615;DHT22;38508;53.158;6.614;2022-10-16T03:17:42;14.30;99.90
52615;DHT22;38508;53.158;6.614;2022-10-16T03:20:08;14.20;99.90
52615;DHT22;38508;53.158;6.614;2022-10-16T03:22:34;14.30;99.90
52615;DHT22;38508;53.158;6.614;2022-10-16T03:25:00;14.40;99.90
52615;DHT22;38508;53.158;6.614;2022-10-16T03:27:26;14.40;99.90
52615;DHT22;38508;53.158;6.614;2022-10-16T03:29:51;14.30;99.90
52615;DHT22;38508;53.158;6.614;2022-10-16T03:32:17;14.40;99.90
52615;DHT22;38508;53.158;6.614;2022-10-16T03:34:43;14.30;99.90
52615;DHT22;38508;53.158;6.614;2022-10-16T03:37:09;14.30;99.90
52615;DHT22;38508;53.158;6.614;2022-10-16T03:39:35;14.20;99.90
52615;DHT22;38508;53.158;6.614;2022-10-16T03:42:00;14.20;99.90
52615;DHT22;38508;53.158;6.614;2022-10-16T03:44:26;14.10;99.90
52615;DHT22;38508;53.158;6.614;2022-10-16T03:46:52;14.20;99.90
52615;DHT22;38508;53.158;6.614;2022-10-16T03:49:17;14.20;99.90
52615;DHT22;38508;53.158;6.614;2022-10-16T03:51:43;14.30;99.90
52615;DHT22;38508;53.158;6.614;2022-10-16T03:54:10;14.20;99.90
52615;DHT22;38508;53.158;6.614;2022-10-16T03:56:35;14.30;99.90
52615;DHT22;38508;53.158;6.614;2022-10-16T03:59:01;14.30;99.90
52615;DHT22;38508;53.158;6.614;2022-10-16T04:01:26;14.40;99.90
52615;DHT22;38508;53.158;6.614;2022-10-16T04:03:52;14.30;99.90
52615;DHT22;38508;53.158;6.614;2022-10-16T04:06:18;14.30;99.90
52615;DHT22;38508;53.158;6.614;2022-10-16T04:08:43;14.30;99.90
52615;DHT22;38508;53.158;6.614;2022-10-16T04:11:09;14.30;99.90
52615;DHT22;38508;53.158;6.614;2022-10-16T04:13:35;14.40;99.90
52615;DHT22;38508;53.158;6.614;2022-10-16T04:16:00;14.40;99.90
52615;DHT22;38508;53.158;6.614;2022-10-16T04:18:26;14.40;99.90
52615;DHT22;38508;53.158;6.614;2022-10-16T04:20:53;14.30;99.90
52615;DHT22;38508;53.158;6.614;2022-10-16T04:23:19;14.30;99.90
52615;DHT22;38508;53.158;6.614;2022-10-16T04:25:45;14.20;99.90
52615;DHT22;38508;53.158;6.614;2022-10-16T04:28:10;14.20;99.90
52615;DHT22;38508;53.158;6.614;2022-10-16T04:30:38;14.10;99.90
52615;DHT22;38508;53.158;6.614;2022-10-16T04:33:04;14.00;99.90
52615;DHT22;38508;53.158;6.614;2022-10-16T04:35:30;14.00;99.90
52615;DHT22;38508;53.158;6.614;2022-10-16T04:37:57;14.10;99.90
52615;DHT22;38508;53.158;6.614;2022-10-16T04:40:23;14.00;99.90
52615;DHT22;38508;53.158;6.614;2022-10-16T04:42:49;14.00;99.90
52615;DHT22;38508;53.158;6.614;2022-10-16T04:45:15;14.00;99.90
52615;DHT22;38508;53.158;6.614;2022-10-16T04:47:40;14.00;99.90
52615;DHT22;38508;53.158;6.614;2022-10-16T04:50:06;14.10;99.90
52615;DHT22;38508;53.158;6.614;2022-10-16T04:52:32;14.20;99.90
52615;DHT22;38508;53.158;6.614;2022-10-16T04:54:58;14.20;99.90
52615;DHT22;38508;53.158;6.614;2022-10-16T04:57:27;14.20;99.90
52615;DHT22;38508;53.158;6.614;2022-10-16T04:59:53;14.30;99.90
52615;DHT22;38508;53.158;6.614;2022-10-16T05:02:19;14.20;99.90
52615;DHT22;38508;53.158;6.614;2022-10-16T05:04:44;14.10;99.90
52615;DHT22;38508;53.158;6.614;2022-10-16T05:07:10;14.10;99.90
52615;DHT22;38508;53.158;6.614;2022-10-16T05:09:36;14.10;99.90
52615;DHT22;38508;53.158;6.614;2022-10-16T05:12:01;14.00;99.90
52615;DHT22;38508;53.158;6.614;2022-10-16T05:14:29;14.00;99.90
52615;DHT22;38508;53.158;6.614;2022-10-16T05:16:55;14.00;99.90
52615;DHT22;38508;53.158;6.614;2022-10-16T05:19:20;14.10;99.90
52615;DHT22;38508;53.158;6.614;2022-10-16T05:21:46;14.20;99.90
52615;DHT22;38508;53.158;6.614;2022-10-16T05:24:12;14.20;99.90
52615;DHT22;38508;53.158;6.614;2022-10-16T05:26:37;14.20;99.90
52615;DHT22;38508;53.158;6.614;2022-10-16T05:29:03;14.20;99.90
52615;DHT22;38508;53.158;6.614;2022-10-16T05:31:29;14.10;99.90
52615;DHT22;38508;53.158;6.614;2022-10-16T05:34:01;14.20;99.90
52615;DHT22;38508;53.158;6.614;2022-10-16T05:36:27;14.30;99.90
52615;DHT22;38508;53.158;6.614;2022-10-16T05:38:53;14.20;99.90
52615;DHT22;38508;53.158;6.614;2022-10-16T05:41:19;14.20;99.90
52615;DHT22;38508;53.158;6.614;2022-10-16T05:43:49;14.20;99.90
52615;DHT22;38508;53.158;6.614;2022-10-16T05:46:15;14.20;99.90
52615;DHT22;38508;53.158;6.614;2022-10-16T05:48:41;14.30;99.90
52615;DHT22;38508;53.158;6.614;2022-10-16T05:51:09;14.40;99.90
52615;DHT22;38508;53.158;6.614;2022-10-16T05:53:37;14.30;99.90
52615;DHT22;38508;53.158;6.614;2022-10-16T05:56:03;14.30;99.90
52615;DHT22;38508;53.158;6.614;2022-10-16T05:58:31;14.30;99.90
52615;DHT22;38508;53.158;6.614;2022-10-16T06:01:02;14.30;99.90
52615;DHT22;38508;53.158;6.614;2022-10-16T06:03:28;14.20;99.90
52615;DHT22;38508;53.158;6.614;2022-10-16T06:05:54;14.30;99.90
52615;DHT22;38508;53.158;6.614;2022-10-16T06:08:20;14.20;99.90
52615;DHT22;38508;53.158;6.614;2022-10-16T06:10:47;14.30;99.90
52615;DHT22;38508;53.158;6.614;2022-10-16T06:13:14;14.20;99.90
52615;DHT22;38508;53.158;6.614;2022-10-16T06:15:40;14.10;99.90
52615;DHT22;38508;53.158;6.614;2022-10-16T06:18:10;14.20;99.90
52615;DHT22;38508;53.158;6.614;2022-10-16T06:20:37;14.20;99.90
52615;DHT22;38508;53.158;6.614;2022-10-16T06:23:03;14.10;99.90
52615;DHT22;38508;53.158;6.614;2022-10-16T06:25:30;14.20;99.90
52615;DHT22;38508;53.158;6.614;2022-10-16T06:27:56;14.10;99.90
52615;DHT22;38508;53.158;6.614;2022-10-16T06:30:22;14.20;99.90
52615;DHT22;38508;53.158;6.614;2022-10-16T06:32:48;14.20;99.90
52615;DHT22;38508;53.158;6.614;2022-10-16T06:35:13;14.30;99.90
52615;DHT22;38508;53.158;6.614;2022-10-16T06:37:39;14.30;99.90
52615;DHT22;38508;53.158;6.614;2022-10-16T06:40:05;14.30;99.90
52615;DHT22;38508;53.158;6.614;2022-10-16T06:42:31;14.20;99.90
52615;DHT22;38508;53.158;6.614;2022-10-16T06:44:56;14.20;99.90
52615;DHT22;38508;53.158;6.614;2022-10-16T06:47:22;14.30;99.90
52615;DHT22;38508;53.158;6.614;2022-10-16T06:49:48;14.20;99.90
52615;DHT22;38508;53.158;6.614;2022-10-16T06:52:13;14.30;99.90
52615;DHT22;38508;53.158;6.614;2022-10-16T06:54:39;14.30;99.90
52615;DHT22;38508;53.158;6.614;2022-10-16T06:57:05;14.40;99.90
52615;DHT22;38508;53.158;6.614;2022-10-16T06:59:30;14.40;99.90
52615;DHT22;38508;53.158;6.614;2022-10-16T07:01:56;14.40;99.90
52615;DHT22;38508;53.158;6.614;2022-10-16T07:04:22;14.60;99.90
52615;DHT22;38508;53.158;6.614;2022-10-16T07:06:47;14.60;99.90
52615;DHT22;38508;53.158;6.614;2022-10-16T07:09:13;14.40;99.90
52615;DHT22;38508;53.158;6.614;2022-10-16T07:11:39;14.40;99.90
52615;DHT22;38508;53.158;6.614;2022-10-16T07:14:18;14.50;99.90
52615;DHT22;38508;53.158;6.614;2022-10-16T07:16:44;14.40;99.90
52615;DHT22;38508;53.158;6.614;2022-10-16T07:19:10;14.50;99.90
52615;DHT22;38508;53.158;6.614;2022-10-16T07:21:37;14.40;99.90
52615;DHT22;38508;53.158;6.614;2022-10-16T07:24:05;14.40;99.90
52615;DHT22;38508;53.158;6.614;2022-10-16T07:26:34;14.40;99.90
52615;DHT22;38508;53.158;6.614;2022-10-16T07:29:00;14.40;99.90
52615;DHT22;38508;53.158;6.614;2022-10-16T07:31:26;14.30;99.90
52615;DHT22;38508;53.158;6.614;2022-10-16T07:33:52;14.40;99.90
52615;DHT22;38508;53.158;6.614;2022-10-16T07:36:19;14.40;99.90
52615;DHT22;38508;53.158;6.614;2022-10-16T07:38:45;14.50;99.90
52615;DHT22;38508;53.158;6.614;2022-10-16T07:41:14;14.50;99.90
52615;DHT22;38508;53.158;6.614;2022-10-16T07:43:44;14.50;99.90
52615;DHT22;38508;53.158;6.614;2022-10-16T07:46:10;14.50;99.90
52615;DHT22;38508;53.158;6.614;2022-10-16T07:48:36;14.60;99.90
52615;DHT22;38508;53.158;6.614;2022-10-16T07:51:04;14.70;99.90
52615;DHT22;38508;53.158;6.614;2022-10-16T07:53:31;14.60;99.90
52615;DHT22;38508;53.158;6.614;2022-10-16T07:56:01;14.80;99.90
52615;DHT22;38508;53.158;6.614;2022-10-16T07:58:30;14.90;99.90
52615;DHT22;38508;53.158;6.614;2022-10-16T08:00:56;14.90;99.90
52615;DHT22;38508;53.158;6.614;2022-10-16T08:03:23;14.90;99.90
52615;DHT22;38508;53.158;6.614;2022-10-16T08:05:49;15.10;99.90
52615;DHT22;38508;53.158;6.614;2022-10-16T08:08:16;15.30;99.90
52615;DHT22;38508;53.158;6.614;2022-10-16T08:10:42;15.30;99.90
52615;DHT22;38508;53.158;6.614;2022-10-16T08:13:09;15.20;99.90
52615;DHT22;38508;53.158;6.614;2022-10-16T08:15:34;15.30;99.90
52615;DHT22;38508;53.158;6.614;2022-10-16T08:18:02;15.20;99.90
52615;DHT22;38508;53.158;6.614;2022-10-16T08:20:30;15.30;99.90
52615;DHT22;38508;53.158;6.614;2022-10-16T08:22:56;15.20;99.90
52615;DHT22;38508;53.158;6.614;2022-10-16T08:25:23;15.20;99.90
52615;DHT22;38508;53.158;6.614;2022-10-16T08:27:49;15.10;99.90
52615;DHT22;38508;53.158;6.614;2022-10-16T08:30:17;15.10;99.90
52615;DHT22;38508;53.158;6.614;2022-10-16T08:32:43;15.10;99.90
52615;DHT22;38508;53.158;6.614;2022-10-16T08:35:10;15.10;99.90
52615;DHT22;38508;53.158;6.614;2022-10-16T08:37:37;15.10;99.90
52615;DHT22;38508;53.158;6.614;2022-10-16T08:40:04;15.20;99.90
52615;DHT22;38508;53.158;6.614;2022-10-16T08:48:22;15.40;99.90
52615;DHT22;38508;53.158;6.614;2022-10-16T08:50:50;15.40;99.90
52615;DHT22;38508;53.158;6.614;2022-10-16T08:53:45;15.50;99.90
52615;DHT22;38508;53.158;6.614;2022-10-16T08:56:12;15.70;99.90
52615;DHT22;38508;53.158;6.614;2022-10-16T08:58:37;15.70;99.90
52615;DHT22;38508;53.158;6.614;2022-10-16T09:01:06;15.70;99.90
52615;DHT22;38508;53.158;6.614;2022-10-16T09:07:02;15.70;99.90
52615;DHT22;38508;53.158;6.614;2022-10-16T09:12:19;15.70;99.90
52615;DHT22;38508;53.158;6.614;2022-10-16T09:17:58;15.70;99.90
52615;DHT22;38508;53.158;6.614;2022-10-16T09:23:27;16.00;99.90
52615;DHT22;38508;53.158;6.614;2022-10-16T09:25:54;16.10;99.90
52615;DHT22;38508;53.158;6.614;2022-10-16T09:28:20;16.10;99.90
52615;DHT22;38508;53.158;6.614;2022-10-16T09:30:47;16.10;99.90
52615;DHT22;38508;53.158;6.614;2022-10-16T09:33:16;16.20;99.90
52615;DHT22;38508;53.158;6.614;2022-10-16T09:35:51;16.40;99.90
52615;DHT22;38508;53.158;6.614;2022-10-16T09:38:28;16.50;99.90
52615;DHT22;38508;53.158;6.614;2022-10-16T09:40:55;16.40;99.90
52615;DHT22;38508;53.158;6.614;2022-10-16T09:43:49;16.50;99.90
52615;DHT22;38508;53.158;6.614;2022-10-16T09:46:33;16.60;99.90
52615;DHT22;38508;53.158;6.614;2022-10-16T09:49:04;16.60;99.90
52615;DHT22;38508;53.158;6.614;2022-10-16T09:51:35;16.40;99.90
52615;DHT22;38508;53.158;6.614;2022-10-16T09:54:19;16.30;99.90
52615;DHT22;38508;53.158;6.614;2022-10-16T09:56:45;16.30;99.90
52615;DHT22;38508;53.158;6.614;2022-10-16T09:59:21;16.50;99.90
52615;DHT22;38508;53.158;6.614;2022-10-16T10:01:55;16.40;99.90
52615;DHT22;38508;53.158;6.614;2022-10-16T10:04:25;16.50;99.90
52615;DHT22;38508;53.158;6.614;2022-10-16T10:06:55;16.60;99.90
52615;DHT22;38508;53.158;6.614;2022-10-16T10:09:33;16.80;99.90
52615;DHT22;38508;53.158;6.614;2022-10-16T10:12:01;17.00;99.90
52615;DHT22;38508;53.158;6.614;2022-10-16T10:14:35;17.20;99.90
52615;DHT22;38508;53.158;6.614;2022-10-16T10:19:54;17.60;99.90
52615;DHT22;38508;53.158;6.614;2022-10-16T10:35:45;17.90;99.90
52615;DHT22;38508;53.158;6.614;2022-10-16T10:38:20;18.20;99.90
52615;DHT22;38508;53.158;6.614;2022-10-16T10:40:56;18.30;99.50
52615;DHT22;38508;53.158;6.614;2022-10-16T10:45:58;18.20;99.30
52615;DHT22;38508;53.158;6.614;2022-10-16T10:48:50;18.30;99.30
52615;DHT22;38508;53.158;6.614;2022-10-16T10:51:28;18.60;99.40
52615;DHT22;38508;53.158;6.614;2022-10-16T11:07:17;18.40;98.50
52615;DHT22;38508;53.158;6.614;2022-10-16T11:09:53;18.20;98.10
52615;DHT22;38508;53.158;6.614;2022-10-16T11:12:27;18.10;98.40
52615;DHT22;38508;53.158;6.614;2022-10-16T11:20:34;18.10;98.10
52615;DHT22;38508;53.158;6.614;2022-10-16T11:23:14;18.30;97.80
52615;DHT22;38508;53.158;6.614;2022-10-16T11:25:43;18.20;97.80
52615;DHT22;38508;53.158;6.614;2022-10-16T11:28:11;18.30;97.40
52615;DHT22;38508;53.158;6.614;2022-10-16T11:30:57;18.30;97.50
52615;DHT22;38508;53.158;6.614;2022-10-16T11:33:28;18.60;97.80
52615;DHT22;38508;53.158;6.614;2022-10-16T11:35:59;19.00;97.90
52615;DHT22;38508;53.158;6.614;2022-10-16T11:46:42;18.90;96.70
52615;DHT22;38508;53.158;6.614;2022-10-16T11:49:16;18.90;96.60
52615;DHT22;38508;53.158;6.614;2022-10-16T11:51:51;19.10;96.90
52615;DHT22;38508;53.158;6.614;2022-10-16T11:54:35;19.20;97.20
52615;DHT22;38508;53.158;6.614;2022-10-16T12:03:12;18.30;96.60
52615;DHT22;38508;53.158;6.614;2022-10-16T12:08:26;17.90;97.20
52615;DHT22;38508;53.158;6.614;2022-10-16T12:10:52;17.80;97.40
52615;DHT22;38508;53.158;6.614;2022-10-16T12:16:21;17.30;97.20
52615;DHT22;38508;53.158;6.614;2022-10-16T12:18:48;17.40;97.20
52615;DHT22;38508;53.158;6.614;2022-10-16T12:21:15;17.90;96.70
52615;DHT22;38508;53.158;6.614;2022-10-16T12:23:54;18.40;96.90
52615;DHT22;38508;53.158;6.614;2022-10-16T12:26:39;18.60;96.40
52615;DHT22;38508;53.158;6.614;2022-10-16T12:31:47;20.00;95.60
52615;DHT22;38508;53.158;6.614;2022-10-16T12:34:32;20.20;95.50
52615;DHT22;38508;53.158;6.614;2022-10-16T12:37:21;20.90;95.20
52615;DHT22;38508;53.158;6.614;2022-10-16T12:39:49;21.20;94.40
52615;DHT22;38508;53.158;6.614;2022-10-16T12:44:55;20.70;94.60
52615;DHT22;38508;53.158;6.614;2022-10-16T12:47:37;20.70;95.20
52615;DHT22;38508;53.158;6.614;2022-10-16T12:50:22;20.70;94.70
52615;DHT22;38508;53.158;6.614;2022-10-16T12:52:48;20.00;95.20
52615;DHT22;38508;53.158;6.614;2022-10-16T12:55:19;20.00;94.90
52615;DHT22;38508;53.158;6.614;2022-10-16T12:58:19;19.40;94.70
52615;DHT22;38508;53.158;6.614;2022-10-16T13:09:19;19.20;95.70
52615;DHT22;38508;53.158;6.614;2022-10-16T13:23:17;18.90;95.90
52615;DHT22;38508;53.158;6.614;2022-10-16T13:28:11;18.80;95.70
52615;DHT22;38508;53.158;6.614;2022-10-16T13:30:43;18.90;95.90
52615;DHT22;38508;53.158;6.614;2022-10-16T13:33:32;18.80;95.70
52615;DHT22;38508;53.158;6.614;2022-10-16T13:35:59;19.00;95.60
52615;DHT22;38508;53.158;6.614;2022-10-16T13:38:30;19.10;96.00
52615;DHT22;38508;53.158;6.614;2022-10-16T13:41:03;19.00;95.60
52615;DHT22;38508;53.158;6.614;2022-10-16T13:43:37;18.90;96.00
52615;DHT22;38508;53.158;6.614;2022-10-16T13:46:11;18.90;96.00
52615;DHT22;38508;53.158;6.614;2022-10-16T13:48:38;18.80;96.10
52615;DHT22;38508;53.158;6.614;2022-10-16T13:51:13;18.60;96.20
52615;DHT22;38508;53.158;6.614;2022-10-16T13:53:39;18.40;95.80
52615;DHT22;38508;53.158;6.614;2022-10-16T13:56:10;18.20;96.30
52615;DHT22;38508;53.158;6.614;2022-10-16T13:58:36;18.20;96.30
52615;DHT22;38508;53.158;6.614;2022-10-16T14:01:04;18.20;96.40
52615;DHT22;38508;53.158;6.614;2022-10-16T14:03:31;18.30;96.50
52615;DHT22;38508;53.158;6.614;2022-10-16T14:06:00;18.10;96.50
52615;DHT22;38508;53.158;6.614;2022-10-16T14:08:27;17.90;96.40
52615;DHT22;38508;53.158;6.614;2022-10-16T14:10:56;18.00;96.70
52615;DHT22;38508;53.158;6.614;2022-10-16T14:13:44;17.90;96.30
52615;DHT22;38508;53.158;6.614;2022-10-16T14:16:17;17.80;96.50
52615;DHT22;38508;53.158;6.614;2022-10-16T14:18:46;17.90;96.60
52615;DHT22;38508;53.158;6.614;2022-10-16T14:21:16;18.00;96.90
52615;DHT22;38508;53.158;6.614;2022-10-16T14:23:43;18.10;96.70
52615;DHT22;38508;53.158;6.614;2022-10-16T14:28:36;18.10;96.90
52615;DHT22;38508;53.158;6.614;2022-10-16T14:31:27;18.20;97.00
52615;DHT22;38508;53.158;6.614;2022-10-16T14:33:53;18.00;96.80
52615;DHT22;38508;53.158;6.614;2022-10-16T14:36:19;17.90;96.90
52615;DHT22;38508;53.158;6.614;2022-10-16T14:41:21;17.90;96.20
52615;DHT22;38508;53.158;6.614;2022-10-16T14:43:52;18.00;96.10
52615;DHT22;38508;53.158;6.614;2022-10-16T14:46:22;18.10;96.40
52615;DHT22;38508;53.158;6.614;2022-10-16T14:48:58;18.10;96.30
52615;DHT22;38508;53.158;6.614;2022-10-16T14:51:25;18.00;96.50
52615;DHT22;38508;53.158;6.614;2022-10-16T14:53:51;18.00;96.40
52615;DHT22;38508;53.158;6.614;2022-10-16T14:56:20;18.00;96.50
52615;DHT22;38508;53.158;6.614;2022-10-16T14:58:47;18.10;96.60
52615;DHT22;38508;53.158;6.614;2022-10-16T15:01:13;18.20;96.60
52615;DHT22;38508;53.158;6.614;2022-10-16T15:03:39;18.30;97.10
52615;DHT22;38508;53.158;6.614;2022-10-16T15:06:13;18.20;96.20
52615;DHT22;38508;53.158;6.614;2022-10-16T15:08:39;18.20;97.00
52615;DHT22;38508;53.158;6.614;2022-10-16T15:11:05;18.20;96.70
52615;DHT22;38508;53.158;6.614;2022-10-16T15:13:35;18.20;97.30
52615;DHT22;38508;53.158;6.614;2022-10-16T15:16:00;18.30;97.40
52615;DHT22;38508;53.158;6.614;2022-10-16T15:18:26;18.30;97.60
52615;DHT22;38508;53.158;6.614;2022-10-16T15:20:52;18.30;97.70
52615;DHT22;38508;53.158;6.614;2022-10-16T15:23:20;18.20;97.80
52615;DHT22;38508;53.158;6.614;2022-10-16T15:28:14;18.20;97.90
52615;DHT22;38508;53.158;6.614;2022-10-16T15:30:40;18.20;97.90
52615;DHT22;38508;53.158;6.614;2022-10-16T15:33:13;18.30;98.00
52615;DHT22;38508;53.158;6.614;2022-10-16T15:35:39;18.20;98.10
52615;DHT22;38508;53.158;6.614;2022-10-16T15:38:05;18.20;98.20
52615;DHT22;38508;53.158;6.614;2022-10-16T15:40:31;18.20;98.20
52615;DHT22;38508;53.158;6.614;2022-10-16T15:42:57;18.10;98.30
52615;DHT22;38508;53.158;6.614;2022-10-16T15:45:23;18.10;98.30
52615;DHT22;38508;53.158;6.614;2022-10-16T15:47:48;18.00;98.40
52615;DHT22;38508;53.158;6.614;2022-10-16T15:50:15;17.90;98.50
52615;DHT22;38508;53.158;6.614;2022-10-16T15:52:41;17.80;98.50
52615;DHT22;38508;53.158;6.614;2022-10-16T15:55:09;17.70;98.60
52615;DHT22;38508;53.158;6.614;2022-10-16T15:57:36;17.60;98.60
52615;DHT22;38508;53.158;6.614;2022-10-16T16:00:09;17.50;98.80
52615;DHT22;38508;53.158;6.614;2022-10-16T16:02:35;17.40;98.80
52615;DHT22;38508;53.158;6.614;2022-10-16T16:05:00;17.30;98.90
52615;DHT22;38508;53.158;6.614;2022-10-16T16:07:27;17.20;98.80
52615;DHT22;38508;53.158;6.614;2022-10-16T16:09:53;17.10;98.90
52615;DHT22;38508;53.158;6.614;2022-10-16T16:12:18;17.00;99.10
52615;DHT22;38508;53.158;6.614;2022-10-16T16:14:44;16.90;99.00
52615;DHT22;38508;53.158;6.614;2022-10-16T16:17:11;16.90;99.10
52615;DHT22;38508;53.158;6.614;2022-10-16T16:19:37;16.70;99.20
52615;DHT22;38508;53.158;6.614;2022-10-16T16:22:03;16.70;99.20
52615;DHT22;38508;53.158;6.614;2022-10-16T16:24:28;16.60;99.30
52615;DHT22;38508;53.158;6.614;2022-10-16T16:26:54;16.50;99.40
52615;DHT22;38508;53.158;6.614;2022-10-16T16:29:20;16.50;99.30
52615;DHT22;38508;53.158;6.614;2022-10-16T16:31:46;16.50;99.30
52615;DHT22;38508;53.158;6.614;2022-10-16T16:34:13;16.50;99.30
52615;DHT22;38508;53.158;6.614;2022-10-16T16:36:38;16.40;99.20
52615;DHT22;38508;53.158;6.614;2022-10-16T16:39:06;16.30;99.40
52615;DHT22;38508;53.158;6.614;2022-10-16T16:41:35;16.20;99.50
52615;DHT22;38508;53.158;6.614;2022-10-16T16:44:05;16.00;99.50
52615;DHT22;38508;53.158;6.614;2022-10-16T16:46:33;15.90;99.60
52615;DHT22;38508;53.158;6.614;2022-10-16T16:48:59;15.90;99.60
52615;DHT22;38508;53.158;6.614;2022-10-16T16:51:25;15.80;99.70
52615;DHT22;38508;53.158;6.614;2022-10-16T16:53:52;15.80;99.80
52615;DHT22;38508;53.158;6.614;2022-10-16T16:56:19;15.80;99.80
52615;DHT22;38508;53.158;6.614;2022-10-16T16:58:46;15.70;99.70
52615;DHT22;38508;53.158;6.614;2022-10-16T17:01:12;15.70;99.80
52615;DHT22;38508;53.158;6.614;2022-10-16T17:03:37;15.70;99.80
52615;DHT22;38508;53.158;6.614;2022-10-16T17:06:07;15.60;99.70
52615;DHT22;38508;53.158;6.614;2022-10-16T17:08:35;15.60;99.80
52615;DHT22;38508;53.158;6.614;2022-10-16T17:11:01;15.60;99.70
52615;DHT22;38508;53.158;6.614;2022-10-16T17:13:32;15.40;99.80
52615;DHT22;38508;53.158;6.614;2022-10-16T17:16:06;15.40;99.80
52615;DHT22;38508;53.158;6.614;2022-10-16T17:18:33;15.30;99.90
52615;DHT22;38508;53.158;6.614;2022-10-16T17:21:03;15.20;99.90
52615;DHT22;38508;53.158;6.614;2022-10-16T17:23:30;15.10;99.90
52615;DHT22;38508;53.158;6.614;2022-10-16T17:25:56;15.10;99.90
52615;DHT22;38508;53.158;6.614;2022-10-16T17:28:22;15.20;99.90
52615;DHT22;38508;53.158;6.614;2022-10-16T17:30:47;15.20;99.90
52615;DHT22;38508;53.158;6.614;2022-10-16T17:33:13;15.10;99.90
52615;DHT22;38508;53.158;6.614;2022-10-16T17:35:41;15.00;99.90
52615;DHT22;38508;53.158;6.614;2022-10-16T17:38:08;15.00;99.90
52615;DHT22;38508;53.158;6.614;2022-10-16T17:40:34;15.00;99.90
52615;DHT22;38508;53.158;6.614;2022-10-16T17:43:00;15.00;99.90
52615;DHT22;38508;53.158;6.614;2022-10-16T17:45:26;14.90;99.90
52615;DHT22;38508;53.158;6.614;2022-10-16T17:47:52;14.80;99.90
52615;DHT22;38508;53.158;6.614;2022-10-16T17:50:18;14.80;99.90